INDIA METEOROLOGICAL DEPARTMENT, R.M.C. NEW DELHI
Dated:23-04-2018
METARS


Ahmedabad  
VAAH 222000Z 00000KT 4000 FU NSC 28/03 Q1008 NOSIG=
Amritsar   
VIAR 221930Z 00000KT 5000 BR NSC 20/16 Q1010 NOSIG=
Bangalore  
VOBL 222000Z 28005KT 6000 SCT012 SCT080 22/21 Q1014 NOSIG=
Bhubaneswar
VEBS 222000Z 21011KT 4000 HZ BKN018 SCT100 29/26 Q1006 NOSIG=
Chennai    
VOMM 222000Z 18005KT 6000 SCT020 30/27 Q1009 NOSIG=
Coimbatore 
VOCB 222000Z 20006KT 5000 HZ FEW015 26/23 Q1011 NOSIG=
Colombo    
VCBI 222010Z 09004KT 050V120 9000 FEW018 26/23 Q1009 NOSIG=
Delhi      
VIDP 222030Z 31008KT 4000 HZ NSC 27/02 Q1009 NOSIG=
Gauhati    
VEGT 222000Z NIL=
Gaya       
VEGY 222000Z NIL=
Hyderabad  
VOHS 222000Z 00000KT 6000 FEW020 SCT100 27/21 Q1011 NOSIG=
Jaipur     
VIJP 222000Z 35003KT 2000 HZ NSC 27/01 Q1011 NOSIG=
Kochi      
VOCI 222000Z 08004KT 4500 BR FEW015 SCT090 26/25 Q1008 NOSIG=
Kolkata    
VECC 222000Z 15005KT 3200 HZ SCT020 BKN100 28/25 Q1006 NOSIG=
Kozhikode  
VOCL 222000Z 10004KT 6000 SCT012 BKN080 26/23 Q1009 NOSIG=
Lucknow    
VILK 222000Z 26004KT 2500 HZ NSC 24/07 Q1007 NOSIG=
Mumbai     
VABB 221830Z 31005KT 3000 HZ NSC 29/23 Q1010 NOSIG=
Nagpur     
VANP 222000Z 00000KT 4000 HZ NSC 32/09 Q1008 NOSIG=
Patna      
VEPT 222000Z NIL=
Trichy     
VOTR 222000Z 00000KT 5000 HZ FEW020 30/22 Q1008 NOSIG=
Trivandrum 
VOTV 222000Z 03004KT 4000 HZ FEW015 29/27 Q1008 NOSIG=
Varanasi   
VEBN 221930Z 23004KT 3500 HZ NSC 27/13 Q1007 NOSIG =
Male       
VRMM 222000Z 17003KT 9999 FEW018 SCT280 29/24 Q1009 NOSIG=
Kathmandu  
VNKT 222000Z NIL=
Dhaka      
VGHS 222000Z 12003KT 3500 HZ FEW015 SCT100 25/21 Q1007 NOSIG=
Colombo    
VCBI 222010Z 09004KT 050V120 9000 FEW018 26/23 Q1009 NOSIG=
Pune       
VAPO 221930Z 28007KT 6000 SKC 24/08 Q1013 NOSIG=